sensor_id;sensor_type;location;lat;lon;timestamp;pressure;altitude;pressure_sealevel;temperature;humidity
64253;BME280;50592;52.958;-7.470;2022-10-17T00:01:07;98513.50;;;10.84;100.00
64253;BME280;50592;52.958;-7.470;2022-10-17T00:03:36;98497.00;;;10.82;100.00
64253;BME280;50592;52.958;-7.470;2022-10-17T00:06:12;98500.50;;;10.89;100.00
64253;BME280;50592;52.958;-7.470;2022-10-17T00:08:42;98499.06;;;10.87;100.00
64253;BME280;50592;52.958;-7.470;2022-10-17T00:11:19;98502.09;;;10.84;100.00
64253;BME280;50592;52.958;-7.470;2022-10-17T00:13:54;98512.03;;;10.82;100.00
64253;BME280;50592;52.958;-7.470;2022-10-17T00:16:30;98509.38;;;10.75;100.00
64253;BME280;50592;52.958;-7.470;2022-10-17T00:19:01;98483.75;;;10.75;100.00
64253;BME280;50592;52.958;-7.470;2022-10-17T00:21:29;98519.31;;;10.73;100.00
64253;BME280;50592;52.958;-7.470;2022-10-17T00:24:01;98520.94;;;10.74;100.00
64253;BME280;50592;52.958;-7.470;2022-10-17T00:26:34;98512.97;;;10.67;100.00
64253;BME280;50592;52.958;-7.470;2022-10-17T00:29:03;98531.47;;;10.67;100.00
64253;BME280;50592;52.958;-7.470;2022-10-17T00:31:33;98517.19;;;10.61;100.00
64253;BME280;50592;52.958;-7.470;2022-10-17T00:34:01;98536.72;;;10.60;100.00
64253;BME280;50592;52.958;-7.470;2022-10-17T00:36:30;98535.50;;;10.63;100.00
64253;BME280;50592;52.958;-7.470;2022-10-17T00:38:58;98545.69;;;10.66;100.00
64253;BME280;50592;52.958;-7.470;2022-10-17T00:41:30;98537.13;;;10.64;100.00
64253;BME280;50592;52.958;-7.470;2022-10-17T00:44:03;98535.88;;;10.60;100.00
64253;BME280;50592;52.958;-7.470;2022-10-17T00:46:37;98558.63;;;10.61;100.00
64253;BME280;50592;52.958;-7.470;2022-10-17T00:49:10;98551.28;;;10.56;100.00
64253;BME280;50592;52.958;-7.470;2022-10-17T00:51:47;98571.81;;;10.54;100.00
64253;BME280;50592;52.958;-7.470;2022-10-17T00:54:19;98561.28;;;10.61;100.00
64253;BME280;50592;52.958;-7.470;2022-10-17T00:56:52;98561.28;;;10.61;100.00
64253;BME280;50592;52.958;-7.470;2022-10-17T00:59:22;98583.38;;;10.53;100.00
64253;BME280;50592;52.958;-7.470;2022-10-17T01:02:15;98588.72;;;10.60;100.00
64253;BME280;50592;52.958;-7.470;2022-10-17T01:04:46;98580.59;;;10.61;100.00
64253;BME280;50592;52.958;-7.470;2022-10-17T01:07:19;98591.81;;;10.63;100.00
64253;BME280;50592;52.958;-7.470;2022-10-17T01:09:48;98593.25;;;10.66;100.00
64253;BME280;50592;52.958;-7.470;2022-10-17T01:28:44;98622.38;;;10.73;100.00
64253;BME280;50592;52.958;-7.470;2022-10-17T01:37:44;98606.75;;;10.78;100.00
64253;BME280;50592;52.958;-7.470;2022-10-17T01:43:15;98588.25;;;10.78;100.00
64253;BME280;50592;52.958;-7.470;2022-10-17T01:45:50;98591.28;;;10.75;100.00
64253;BME280;50592;52.958;-7.470;2022-10-17T01:48:23;98590.84;;;10.71;100.00
64253;BME280;50592;52.958;-7.470;2022-10-17T01:51:11;98589.59;;;10.67;100.00
64253;BME280;50592;52.958;-7.470;2022-10-17T01:53:56;98586.97;;;10.67;100.00
64253;BME280;50592;52.958;-7.470;2022-10-17T01:56:26;98582.84;;;10.64;100.00
64253;BME280;50592;52.958;-7.470;2022-10-17T01:59:05;98594.63;;;10.62;100.00
64253;BME280;50592;52.958;-7.470;2022-10-17T02:01:35;98575.88;;;10.57;100.00
64253;BME280;50592;52.958;-7.470;2022-10-17T02:04:09;98590.16;;;10.62;100.00
64253;BME280;50592;52.958;-7.470;2022-10-17T02:06:37;98590.53;;;10.59;100.00
64253;BME280;50592;52.958;-7.470;2022-10-17T02:09:17;98589.72;;;10.59;100.00
64253;BME280;50592;52.958;-7.470;2022-10-17T02:11:56;98587.69;;;10.61;100.00
64253;BME280;50592;52.958;-7.470;2022-10-17T02:20:27;98577.13;;;10.61;100.00
64253;BME280;50592;52.958;-7.470;2022-10-17T02:26:00;98597.47;;;10.60;100.00
64253;BME280;50592;52.958;-7.470;2022-10-17T02:31:22;98626.72;;;10.59;100.00
64253;BME280;50592;52.958;-7.470;2022-10-17T02:34:00;98627.41;;;10.67;100.00
64253;BME280;50592;52.958;-7.470;2022-10-17T02:36:42;98622.31;;;10.66;100.00
64253;BME280;50592;52.958;-7.470;2022-10-17T02:39:24;98648.97;;;10.71;100.00
64253;BME280;50592;52.958;-7.470;2022-10-17T02:41:55;98654.06;;;10.73;100.00
64253;BME280;50592;52.958;-7.470;2022-10-17T02:44:26;98648.53;;;10.67;100.00
64253;BME280;50592;52.958;-7.470;2022-10-17T02:47:12;98639.81;;;10.67;100.00
64253;BME280;50592;52.958;-7.470;2022-10-17T02:49:49;98636.91;;;10.62;100.00
64253;BME280;50592;52.958;-7.470;2022-10-17T02:55:29;98651.47;;;10.58;100.00
64253;BME280;50592;52.958;-7.470;2022-10-17T02:58:23;98631.56;;;10.55;100.00
64253;BME280;50592;52.958;-7.470;2022-10-17T03:00:55;98645.97;;;10.52;100.00
64253;BME280;50592;52.958;-7.470;2022-10-17T03:03:25;98660.81;;;10.53;100.00
64253;BME280;50592;52.958;-7.470;2022-10-17T03:06:01;98669.28;;;10.49;100.00
64253;BME280;50592;52.958;-7.470;2022-10-17T03:08:30;98665.38;;;10.45;100.00
64253;BME280;50592;52.958;-7.470;2022-10-17T03:11:01;98677.13;;;10.42;100.00
64253;BME280;50592;52.958;-7.470;2022-10-17T03:13:29;98683.59;;;10.39;100.00
64253;BME280;50592;52.958;-7.470;2022-10-17T03:16:00;98683.16;;;10.36;100.00
64253;BME280;50592;52.958;-7.470;2022-10-17T03:18:33;98685.97;;;10.34;100.00
64253;BME280;50592;52.958;-7.470;2022-10-17T03:21:02;98678.44;;;10.31;100.00
64253;BME280;50592;52.958;-7.470;2022-10-17T03:23:31;98698.13;;;10.28;100.00
64253;BME280;50592;52.958;-7.470;2022-10-17T03:26:05;98705.38;;;10.26;100.00
64253;BME280;50592;52.958;-7.470;2022-10-17T03:28:37;98711.13;;;10.30;100.00
64253;BME280;50592;52.958;-7.470;2022-10-17T03:31:12;98718.22;;;10.29;100.00
64253;BME280;50592;52.958;-7.470;2022-10-17T03:33:44;98729.97;;;10.27;100.00
64253;BME280;50592;52.958;-7.470;2022-10-17T03:36:14;98703.03;;;10.32;100.00
64253;BME280;50592;52.958;-7.470;2022-10-17T03:38:46;98725.59;;;10.34;100.00
64253;BME280;50592;52.958;-7.470;2022-10-17T03:41:17;98716.41;;;10.30;100.00
64253;BME280;50592;52.958;-7.470;2022-10-17T03:43:47;98720.88;;;10.29;100.00
64253;BME280;50592;52.958;-7.470;2022-10-17T03:46:14;98739.06;;;10.24;100.00
64253;BME280;50592;52.958;-7.470;2022-10-17T03:48:47;98733.59;;;10.26;100.00
64253;BME280;50592;52.958;-7.470;2022-10-17T03:51:16;98733.56;;;10.19;100.00
64253;BME280;50592;52.958;-7.470;2022-10-17T03:53:51;98753.66;;;10.20;100.00
64253;BME280;50592;52.958;-7.470;2022-10-17T03:56:23;98756.84;;;10.15;100.00
64253;BME280;50592;52.958;-7.470;2022-10-17T03:59:01;98782.06;;;10.18;100.00
64253;BME280;50592;52.958;-7.470;2022-10-17T04:01:30;98772.22;;;10.12;100.00
64253;BME280;50592;52.958;-7.470;2022-10-17T04:03:59;98773.06;;;10.12;100.00
64253;BME280;50592;52.958;-7.470;2022-10-17T04:06:31;98783.06;;;10.17;100.00
64253;BME280;50592;52.958;-7.470;2022-10-17T04:08:59;98770.06;;;10.15;100.00
64253;BME280;50592;52.958;-7.470;2022-10-17T04:11:42;98758.03;;;10.13;100.00
64253;BME280;50592;52.958;-7.470;2022-10-17T04:14:09;98803.72;;;10.13;100.00
64253;BME280;50592;52.958;-7.470;2022-10-17T04:16:39;98811.66;;;10.13;99.55
64253;BME280;50592;52.958;-7.470;2022-10-17T04:19:14;98825.50;;;10.15;99.43
64253;BME280;50592;52.958;-7.470;2022-10-17T04:21:47;98844.44;;;10.19;99.20
64253;BME280;50592;52.958;-7.470;2022-10-17T04:24:14;98855.97;;;10.18;99.23
64253;BME280;50592;52.958;-7.470;2022-10-17T04:26:48;98858.25;;;10.21;99.69
64253;BME280;50592;52.958;-7.470;2022-10-17T04:29:18;98850.09;;;10.16;99.78
64253;BME280;50592;52.958;-7.470;2022-10-17T04:31:50;98853.41;;;10.10;100.00
64253;BME280;50592;52.958;-7.470;2022-10-17T04:34:31;98851.16;;;10.07;100.00
64253;BME280;50592;52.958;-7.470;2022-10-17T04:36:58;98861.25;;;10.03;100.00
64253;BME280;50592;52.958;-7.470;2022-10-17T04:39:26;98858.81;;;10.01;100.00
64253;BME280;50592;52.958;-7.470;2022-10-17T04:41:55;98886.66;;;10.04;100.00
64253;BME280;50592;52.958;-7.470;2022-10-17T04:44:22;98878.25;;;10.00;100.00
64253;BME280;50592;52.958;-7.470;2022-10-17T04:46:53;98901.41;;;9.98;100.00
64253;BME280;50592;52.958;-7.470;2022-10-17T04:49:21;98915.56;;;9.97;100.00
64253;BME280;50592;52.958;-7.470;2022-10-17T04:51:54;98904.41;;;9.95;100.00
64253;BME280;50592;52.958;-7.470;2022-10-17T04:54:30;98918.69;;;10.01;100.00
64253;BME280;50592;52.958;-7.470;2022-10-17T04:57:07;98930.16;;;10.08;100.00
64253;BME280;50592;52.958;-7.470;2022-10-17T04:59:34;98923.72;;;10.11;100.00
64253;BME280;50592;52.958;-7.470;2022-10-17T05:02:16;98947.13;;;10.14;100.00
64253;BME280;50592;52.958;-7.470;2022-10-17T05:04:45;98938.72;;;10.10;100.00
64253;BME280;50592;52.958;-7.470;2022-10-17T05:07:13;98945.81;;;10.10;100.00
64253;BME280;50592;52.958;-7.470;2022-10-17T05:09:46;98950.78;;;10.13;100.00
64253;BME280;50592;52.958;-7.470;2022-10-17T05:12:18;98950.31;;;10.09;100.00
64253;BME280;50592;52.958;-7.470;2022-10-17T05:14:49;98965.13;;;10.10;99.67
64253;BME280;50592;52.958;-7.470;2022-10-17T05:17:19;98977.00;;;10.14;99.21
64253;BME280;50592;52.958;-7.470;2022-10-17T05:19:50;98986.25;;;10.10;99.57
64253;BME280;50592;52.958;-7.470;2022-10-17T05:22:17;98988.25;;;10.08;99.83
64253;BME280;50592;52.958;-7.470;2022-10-17T05:24:48;99000.16;;;10.04;99.95
64253;BME280;50592;52.958;-7.470;2022-10-17T05:27:15;99004.00;;;10.01;99.71
64253;BME280;50592;52.958;-7.470;2022-10-17T05:29:45;99015.81;;;10.05;99.90
64253;BME280;50592;52.958;-7.470;2022-10-17T05:32:18;99020.41;;;10.12;99.87
64253;BME280;50592;52.958;-7.470;2022-10-17T05:34:48;99015.47;;;10.09;99.87
64253;BME280;50592;52.958;-7.470;2022-10-17T05:37:19;99033.41;;;10.13;99.61
64253;BME280;50592;52.958;-7.470;2022-10-17T05:39:52;99040.19;;;10.16;99.70
64253;BME280;50592;52.958;-7.470;2022-10-17T05:42:19;99048.72;;;10.18;99.94
64253;BME280;50592;52.958;-7.470;2022-10-17T05:44:49;99058.50;;;10.17;99.83
64253;BME280;50592;52.958;-7.470;2022-10-17T05:47:18;99072.16;;;10.21;99.75
64253;BME280;50592;52.958;-7.470;2022-10-17T05:49:46;99068.69;;;10.21;99.84
64253;BME280;50592;52.958;-7.470;2022-10-17T05:52:14;99069.31;;;10.23;99.75
64253;BME280;50592;52.958;-7.470;2022-10-17T05:54:59;99090.00;;;10.19;99.94
64253;BME280;50592;52.958;-7.470;2022-10-17T05:57:32;99078.44;;;10.20;100.00
64253;BME280;50592;52.958;-7.470;2022-10-17T06:00:04;99091.63;;;10.20;100.00
64253;BME280;50592;52.958;-7.470;2022-10-17T06:02:45;99091.47;;;10.22;100.00
64253;BME280;50592;52.958;-7.470;2022-10-17T06:05:14;99094.75;;;10.24;99.94
64253;BME280;50592;52.958;-7.470;2022-10-17T06:07:45;99114.03;;;10.24;99.99
64253;BME280;50592;52.958;-7.470;2022-10-17T06:10:14;99105.50;;;10.22;100.00
64253;BME280;50592;52.958;-7.470;2022-10-17T06:12:45;99122.97;;;10.23;100.00
64253;BME280;50592;52.958;-7.470;2022-10-17T06:15:13;99126.63;;;10.22;99.87
64253;BME280;50592;52.958;-7.470;2022-10-17T06:17:46;99135.06;;;10.17;99.54
64253;BME280;50592;52.958;-7.470;2022-10-17T06:20:13;99146.91;;;10.22;99.73
64253;BME280;50592;52.958;-7.470;2022-10-17T06:22:42;99146.09;;;10.21;99.93
64253;BME280;50592;52.958;-7.470;2022-10-17T06:25:14;99146.78;;;10.15;99.57
64253;BME280;50592;52.958;-7.470;2022-10-17T06:27:44;99163.94;;;10.19;99.36
64253;BME280;50592;52.958;-7.470;2022-10-17T06:30:11;99171.72;;;10.12;99.70
64253;BME280;50592;52.958;-7.470;2022-10-17T06:32:41;99165.13;;;10.08;99.64
64253;BME280;50592;52.958;-7.470;2022-10-17T06:35:11;99178.16;;;10.10;99.40
64253;BME280;50592;52.958;-7.470;2022-10-17T06:37:42;99176.03;;;10.05;99.96
64253;BME280;50592;52.958;-7.470;2022-10-17T06:40:12;99187.94;;;10.01;99.49
64253;BME280;50592;52.958;-7.470;2022-10-17T06:42:45;99187.59;;;10.04;99.53
64253;BME280;50592;52.958;-7.470;2022-10-17T06:45:47;99188.13;;;9.99;99.68
64253;BME280;50592;52.958;-7.470;2022-10-17T06:48:29;99205.25;;;10.03;100.00
64253;BME280;50592;52.958;-7.470;2022-10-17T06:51:14;99199.63;;;10.07;100.00
64253;BME280;50592;52.958;-7.470;2022-10-17T06:53:47;99209.72;;;10.03;100.00
64253;BME280;50592;52.958;-7.470;2022-10-17T06:56:30;99201.78;;;10.11;100.00
64253;BME280;50592;52.958;-7.470;2022-10-17T06:59:05;99223.03;;;10.10;100.00
64253;BME280;50592;52.958;-7.470;2022-10-17T07:01:37;99240.38;;;10.12;100.00
64253;BME280;50592;52.958;-7.470;2022-10-17T07:04:04;99246.34;;;10.06;100.00
64253;BME280;50592;52.958;-7.470;2022-10-17T07:06:35;99242.03;;;10.05;100.00
64253;BME280;50592;52.958;-7.470;2022-10-17T07:09:08;99245.84;;;10.02;100.00
64253;BME280;50592;52.958;-7.470;2022-10-17T07:11:38;99260.50;;;10.05;100.00
64253;BME280;50592;52.958;-7.470;2022-10-17T07:14:06;99268.31;;;9.98;100.00
64253;BME280;50592;52.958;-7.470;2022-10-17T07:16:35;99277.38;;;9.96;100.00
64253;BME280;50592;52.958;-7.470;2022-10-17T07:19:16;99278.53;;;9.93;100.00
64253;BME280;50592;52.958;-7.470;2022-10-17T07:21:45;99275.06;;;9.92;100.00
64253;BME280;50592;52.958;-7.470;2022-10-17T07:24:13;99293.38;;;9.94;100.00
64253;BME280;50592;52.958;-7.470;2022-10-17T07:26:45;99298.19;;;9.90;100.00
64253;BME280;50592;52.958;-7.470;2022-10-17T07:29:14;99302.97;;;9.95;100.00
64253;BME280;50592;52.958;-7.470;2022-10-17T07:31:56;99306.56;;;9.94;100.00
64253;BME280;50592;52.958;-7.470;2022-10-17T07:34:32;99316.63;;;9.99;100.00
64253;BME280;50592;52.958;-7.470;2022-10-17T07:37:00;99317.81;;;9.96;100.00
64253;BME280;50592;52.958;-7.470;2022-10-17T07:39:30;99323.59;;;9.91;100.00
64253;BME280;50592;52.958;-7.470;2022-10-17T07:41:57;99342.56;;;9.95;100.00
64253;BME280;50592;52.958;-7.470;2022-10-17T07:44:27;99344.53;;;9.93;100.00
64253;BME280;50592;52.958;-7.470;2022-10-17T07:46:57;99362.19;;;9.92;100.00
64253;BME280;50592;52.958;-7.470;2022-10-17T07:49:27;99355.44;;;9.90;100.00
64253;BME280;50592;52.958;-7.470;2022-10-17T07:51:58;99358.41;;;9.95;100.00
64253;BME280;50592;52.958;-7.470;2022-10-17T07:54:28;99383.47;;;9.99;100.00
64253;BME280;50592;52.958;-7.470;2022-10-17T07:56:55;99383.63;;;9.98;100.00
64253;BME280;50592;52.958;-7.470;2022-10-17T07:59:25;99407.38;;;10.06;100.00
64253;BME280;50592;52.958;-7.470;2022-10-17T08:01:54;99415.13;;;10.08;100.00
64253;BME280;50592;52.958;-7.470;2022-10-17T08:04:25;99414.81;;;10.11;100.00
64253;BME280;50592;52.958;-7.470;2022-10-17T08:06:55;99436.09;;;10.17;100.00
64253;BME280;50592;52.958;-7.470;2022-10-17T08:09:25;99458.34;;;10.23;100.00
64253;BME280;50592;52.958;-7.470;2022-10-17T08:11:55;99462.31;;;10.27;100.00
64253;BME280;50592;52.958;-7.470;2022-10-17T08:14:25;99471.41;;;10.33;100.00
64253;BME280;50592;52.958;-7.470;2022-10-17T08:16:53;99474.84;;;10.34;100.00
64253;BME280;50592;52.958;-7.470;2022-10-17T08:19:23;99496.63;;;10.36;100.00
64253;BME280;50592;52.958;-7.470;2022-10-17T08:21:50;99512.66;;;10.34;100.00
64253;BME280;50592;52.958;-7.470;2022-10-17T08:24:20;99514.13;;;10.37;100.00
64253;BME280;50592;52.958;-7.470;2022-10-17T08:26:47;99535.94;;;10.39;100.00
64253;BME280;50592;52.958;-7.470;2022-10-17T08:29:17;99529.69;;;10.40;100.00
64253;BME280;50592;52.958;-7.470;2022-10-17T08:31:43;99552.13;;;10.44;100.00
64253;BME280;50592;52.958;-7.470;2022-10-17T08:34:13;99553.63;;;10.47;100.00
64253;BME280;50592;52.958;-7.470;2022-10-17T08:36:43;99563.06;;;10.49;100.00
64253;BME280;50592;52.958;-7.470;2022-10-17T08:39:10;99584.66;;;10.53;100.00
64253;BME280;50592;52.958;-7.470;2022-10-17T08:42:26;99581.69;;;10.56;100.00
64253;BME280;50592;52.958;-7.470;2022-10-17T08:47:48;99590.47;;;10.65;100.00
64253;BME280;50592;52.958;-7.470;2022-10-17T08:50:34;99583.03;;;10.60;100.00
64253;BME280;50592;52.958;-7.470;2022-10-17T08:53:14;99602.84;;;10.73;100.00
64253;BME280;50592;52.958;-7.470;2022-10-17T08:55:49;99605.16;;;10.76;100.00
64253;BME280;50592;52.958;-7.470;2022-10-17T08:58:20;99611.75;;;10.80;100.00
64253;BME280;50592;52.958;-7.470;2022-10-17T09:06:41;99646.09;;;10.80;100.00
64253;BME280;50592;52.958;-7.470;2022-10-17T09:12:19;99655.22;;;10.77;100.00
64253;BME280;50592;52.958;-7.470;2022-10-17T09:17:58;99664.44;;;10.82;100.00
64253;BME280;50592;52.958;-7.470;2022-10-17T09:20:33;99673.88;;;10.84;100.00
64253;BME280;50592;52.958;-7.470;2022-10-17T09:23:09;99676.19;;;10.87;100.00
64253;BME280;50592;52.958;-7.470;2022-10-17T09:25:45;99695.19;;;10.91;100.00
64253;BME280;50592;52.958;-7.470;2022-10-17T09:28:37;99708.22;;;10.92;100.00
64253;BME280;50592;52.958;-7.470;2022-10-17T09:31:20;99714.19;;;10.95;100.00
64253;BME280;50592;52.958;-7.470;2022-10-17T09:33:54;99730.72;;;10.97;100.00
64253;BME280;50592;52.958;-7.470;2022-10-17T09:36:34;99738.50;;;10.98;100.00
64253;BME280;50592;52.958;-7.470;2022-10-17T09:39:11;99740.13;;;10.99;100.00
64253;BME280;50592;52.958;-7.470;2022-10-17T09:41:43;99725.13;;;11.08;100.00
64253;BME280;50592;52.958;-7.470;2022-10-17T09:46:55;99728.06;;;11.22;100.00
64253;BME280;50592;52.958;-7.470;2022-10-17T09:49:35;99739.16;;;11.25;99.39
64253;BME280;50592;52.958;-7.470;2022-10-17T09:52:07;99745.13;;;11.19;98.30
64253;BME280;50592;52.958;-7.470;2022-10-17T09:54:50;99759.66;;;11.32;98.50
64253;BME280;50592;52.958;-7.470;2022-10-17T09:57:21;99760.63;;;11.39;98.56
64253;BME280;50592;52.958;-7.470;2022-10-17T10:00:04;99776.00;;;11.44;96.65
64253;BME280;50592;52.958;-7.470;2022-10-17T10:02:39;99773.69;;;11.49;97.50
64253;BME280;50592;52.958;-7.470;2022-10-17T10:05:17;99779.31;;;11.62;96.90
64253;BME280;50592;52.958;-7.470;2022-10-17T10:08:11;99789.69;;;11.72;95.87
64253;BME280;50592;52.958;-7.470;2022-10-17T10:10:43;99808.56;;;11.77;96.39
64253;BME280;50592;52.958;-7.470;2022-10-17T10:15:49;99818.97;;;11.87;95.53
64253;BME280;50592;52.958;-7.470;2022-10-17T10:18:28;99810.88;;;11.89;94.95
64253;BME280;50592;52.958;-7.470;2022-10-17T10:23:37;99841.81;;;11.97;92.35
64253;BME280;50592;52.958;-7.470;2022-10-17T10:26:22;99853.22;;;11.97;90.70
64253;BME280;50592;52.958;-7.470;2022-10-17T10:29:15;99852.38;;;12.05;91.20
64253;BME280;50592;52.958;-7.470;2022-10-17T10:31:44;99877.41;;;12.11;91.21
64253;BME280;50592;52.958;-7.470;2022-10-17T10:34:23;99868.25;;;12.22;90.27
64253;BME280;50592;52.958;-7.470;2022-10-17T10:37:01;99881.66;;;12.28;89.88
64253;BME280;50592;52.958;-7.470;2022-10-17T10:39:45;99885.31;;;12.36;90.17
64253;BME280;50592;52.958;-7.470;2022-10-17T10:42:28;99892.56;;;12.42;89.58
64253;BME280;50592;52.958;-7.470;2022-10-17T10:47:53;99892.00;;;12.63;88.24
64253;BME280;50592;52.958;-7.470;2022-10-17T10:50:43;99901.88;;;12.78;86.65
64253;BME280;50592;52.958;-7.470;2022-10-17T10:56:36;99915.56;;;12.90;84.68
64253;BME280;50592;52.958;-7.470;2022-10-17T11:04:25;99937.41;;;13.09;83.73
64253;BME280;50592;52.958;-7.470;2022-10-17T11:07:05;99944.66;;;13.15;83.11
64253;BME280;50592;52.958;-7.470;2022-10-17T11:10:04;99943.13;;;13.21;81.91
64253;BME280;50592;52.958;-7.470;2022-10-17T11:12:45;99949.22;;;13.30;82.94
64253;BME280;50592;52.958;-7.470;2022-10-17T11:15:55;99948.81;;;13.41;82.42
64253;BME280;50592;52.958;-7.470;2022-10-17T11:18:33;99965.75;;;13.40;81.70
64253;BME280;50592;52.958;-7.470;2022-10-17T11:21:21;99959.50;;;13.33;80.01
64253;BME280;50592;52.958;-7.470;2022-10-17T11:23:55;99985.09;;;13.17;79.45
64253;BME280;50592;52.958;-7.470;2022-10-17T11:26:31;99996.66;;;13.33;81.30
64253;BME280;50592;52.958;-7.470;2022-10-17T11:29:02;100000.78;;;13.35;81.36
64253;BME280;50592;52.958;-7.470;2022-10-17T11:31:37;99997.63;;;13.32;79.60
64253;BME280;50592;52.958;-7.470;2022-10-17T11:34:11;100030.31;;;13.32;79.91
64253;BME280;50592;52.958;-7.470;2022-10-17T11:36:50;100042.25;;;13.36;80.11
64253;BME280;50592;52.958;-7.470;2022-10-17T11:39:35;100040.56;;;13.44;79.42
64253;BME280;50592;52.958;-7.470;2022-10-17T11:42:15;100045.03;;;13.51;79.52
64253;BME280;50592;52.958;-7.470;2022-10-17T11:44:48;100059.97;;;13.52;79.74
64253;BME280;50592;52.958;-7.470;2022-10-17T11:47:43;100072.59;;;13.50;79.64
64253;BME280;50592;52.958;-7.470;2022-10-17T11:52:59;100070.28;;;13.39;79.10
64253;BME280;50592;52.958;-7.470;2022-10-17T11:55:30;100095.50;;;13.35;79.86
64253;BME280;50592;52.958;-7.470;2022-10-17T12:00:59;100086.63;;;13.68;79.32
64253;BME280;50592;52.958;-7.470;2022-10-17T12:08:55;100093.34;;;14.10;77.60
64253;BME280;50592;52.958;-7.470;2022-10-17T12:14:33;100107.69;;;14.01;77.90
64253;BME280;50592;52.958;-7.470;2022-10-17T12:17:19;100110.59;;;14.14;77.59
64253;BME280;50592;52.958;-7.470;2022-10-17T12:19:51;100106.34;;;14.29;77.86
64253;BME280;50592;52.958;-7.470;2022-10-17T12:22:24;100116.28;;;14.35;77.60
64253;BME280;50592;52.958;-7.470;2022-10-17T12:24:57;100125.47;;;14.24;77.33
64253;BME280;50592;52.958;-7.470;2022-10-17T12:27:43;100123.28;;;14.04;74.76
64253;BME280;50592;52.958;-7.470;2022-10-17T12:30:18;100132.38;;;14.10;77.34
64253;BME280;50592;52.958;-7.470;2022-10-17T12:32:58;100135.22;;;14.32;76.67
64253;BME280;50592;52.958;-7.470;2022-10-17T12:35:31;100141.72;;;14.52;76.56
64253;BME280;50592;52.958;-7.470;2022-10-17T12:40:50;100134.53;;;14.61;74.96
64253;BME280;50592;52.958;-7.470;2022-10-17T12:45:57;100146.09;;;14.69;71.65
64253;BME280;50592;52.958;-7.470;2022-10-17T12:54:07;100155.63;;;14.63;71.18
64253;BME280;50592;52.958;-7.470;2022-10-17T12:56:47;100166.75;;;14.67;71.29
64253;BME280;50592;52.958;-7.470;2022-10-17T12:59:23;100170.75;;;14.62;71.58
64253;BME280;50592;52.958;-7.470;2022-10-17T13:01:57;100196.19;;;14.65;72.05
64253;BME280;50592;52.958;-7.470;2022-10-17T13:04:25;100197.13;;;14.72;72.93
64253;BME280;50592;52.958;-7.470;2022-10-17T13:06:57;100210.59;;;14.71;72.18
64253;BME280;50592;52.958;-7.470;2022-10-17T13:09:41;100205.28;;;14.71;71.56
64253;BME280;50592;52.958;-7.470;2022-10-17T13:12:17;100218.75;;;14.69;70.62
64253;BME280;50592;52.958;-7.470;2022-10-17T13:14:50;100210.94;;;14.68;70.91
64253;BME280;50592;52.958;-7.470;2022-10-17T13:17:27;100209.84;;;14.62;70.21
64253;BME280;50592;52.958;-7.470;2022-10-17T13:19:58;100223.59;;;14.66;70.10
64253;BME280;50592;52.958;-7.470;2022-10-17T13:22:27;100223.22;;;14.69;70.43
64253;BME280;50592;52.958;-7.470;2022-10-17T13:25:13;100238.66;;;14.73;70.15
64253;BME280;50592;52.958;-7.470;2022-10-17T13:27:39;100234.34;;;14.81;71.02
64253;BME280;50592;52.958;-7.470;2022-10-17T13:30:24;100248.63;;;14.80;69.42
64253;BME280;50592;52.958;-7.470;2022-10-17T13:32:52;100244.28;;;14.79;70.65
64253;BME280;50592;52.958;-7.470;2022-10-17T13:35:27;100250.25;;;14.89;70.45
64253;BME280;50592;52.958;-7.470;2022-10-17T13:37:55;100242.59;;;14.86;70.05
64253;BME280;50592;52.958;-7.470;2022-10-17T13:40:27;100250.94;;;14.83;69.19
64253;BME280;50592;52.958;-7.470;2022-10-17T13:42:58;100250.13;;;14.82;69.24
64253;BME280;50592;52.958;-7.470;2022-10-17T13:45:35;100253.28;;;14.78;67.97
64253;BME280;50592;52.958;-7.470;2022-10-17T13:48:23;100247.97;;;14.78;68.03
64253;BME280;50592;52.958;-7.470;2022-10-17T13:50:56;100253.28;;;14.78;68.30
64253;BME280;50592;52.958;-7.470;2022-10-17T13:53:38;100257.44;;;14.80;69.26
64253;BME280;50592;52.958;-7.470;2022-10-17T13:58:51;100272.69;;;14.86;69.82
64253;BME280;50592;52.958;-7.470;2022-10-17T14:01:25;100281.69;;;14.85;69.52
64253;BME280;50592;52.958;-7.470;2022-10-17T14:03:57;100283.34;;;14.78;69.96
64253;BME280;50592;52.958;-7.470;2022-10-17T14:06:29;100284.59;;;14.67;69.55
64253;BME280;50592;52.958;-7.470;2022-10-17T14:09:03;100301.22;;;14.69;69.74
64253;BME280;50592;52.958;-7.470;2022-10-17T14:11:36;100301.53;;;14.74;69.75
64253;BME280;50592;52.958;-7.470;2022-10-17T14:14:19;100309.13;;;14.86;68.80
64253;BME280;50592;52.958;-7.470;2022-10-17T14:16:51;100313.44;;;14.87;68.69
64253;BME280;50592;52.958;-7.470;2022-10-17T14:19:33;100323.22;;;14.95;67.80
64253;BME280;50592;52.958;-7.470;2022-10-17T14:22:16;100333.84;;;14.95;68.20
64253;BME280;50592;52.958;-7.470;2022-10-17T14:24:43;100350.72;;;14.87;69.14
64253;BME280;50592;52.958;-7.470;2022-10-17T14:27:32;100349.06;;;14.78;67.98
64253;BME280;50592;52.958;-7.470;2022-10-17T14:30:06;100368.22;;;14.73;69.13
64253;BME280;50592;52.958;-7.470;2022-10-17T14:32:35;100374.84;;;14.77;69.34
64253;BME280;50592;52.958;-7.470;2022-10-17T14:35:05;100371.84;;;14.72;69.49
64253;BME280;50592;52.958;-7.470;2022-10-17T14:37:42;100383.50;;;14.71;69.24
64253;BME280;50592;52.958;-7.470;2022-10-17T14:40:18;100380.00;;;14.70;69.73
64253;BME280;50592;52.958;-7.470;2022-10-17T14:42:49;100398.97;;;14.67;70.23
64253;BME280;50592;52.958;-7.470;2022-10-17T14:47:56;100401.66;;;14.59;70.91
64253;BME280;50592;52.958;-7.470;2022-10-17T14:50:30;100412.81;;;14.54;70.68
64253;BME280;50592;52.958;-7.470;2022-10-17T14:55:33;100431.94;;;14.49;72.00
64253;BME280;50592;52.958;-7.470;2022-10-17T14:58:01;100433.47;;;14.44;72.28
64253;BME280;50592;52.958;-7.470;2022-10-17T15:00:31;100431.31;;;14.39;72.61
64253;BME280;50592;52.958;-7.470;2022-10-17T15:03:03;100431.84;;;14.34;72.98
64253;BME280;50592;52.958;-7.470;2022-10-17T15:05:30;100436.81;;;14.29;73.23